sensor_id;sensor_type;location;lat;lon;timestamp;temperature;humidity
26164;DHT22;13914;48.178;11.716;2023-05-14T00:01:54;11.70;45.20
26164;DHT22;13914;48.178;11.716;2023-05-14T00:04:20;11.70;45.10
26164;DHT22;13914;48.178;11.716;2023-05-14T00:06:45;11.60;45.30
26164;DHT22;13914;48.178;11.716;2023-05-14T00:09:11;11.60;45.00
26164;DHT22;13914;48.178;11.716;2023-05-14T00:11:37;11.60;45.40
26164;DHT22;13914;48.178;11.716;2023-05-14T00:14:03;11.60;45.00
26164;DHT22;13914;48.178;11.716;2023-05-14T00:16:29;11.50;44.80
26164;DHT22;13914;48.178;11.716;2023-05-14T00:18:54;11.50;45.40
26164;DHT22;13914;48.178;11.716;2023-05-14T00:21:20;11.50;45.30
26164;DHT22;13914;48.178;11.716;2023-05-14T00:23:45;11.40;44.90
26164;DHT22;13914;48.178;11.716;2023-05-14T00:26:11;11.40;45.00
26164;DHT22;13914;48.178;11.716;2023-05-14T00:28:37;11.40;44.60
26164;DHT22;13914;48.178;11.716;2023-05-14T00:31:03;11.40;44.80
26164;DHT22;13914;48.178;11.716;2023-05-14T00:33:29;11.40;45.10
26164;DHT22;13914;48.178;11.716;2023-05-14T00:35:54;11.30;45.00
26164;DHT22;13914;48.178;11.716;2023-05-14T00:38:20;11.30;44.40
26164;DHT22;13914;48.178;11.716;2023-05-14T00:40:48;11.30;44.30
26164;DHT22;13914;48.178;11.716;2023-05-14T00:43:17;11.30;44.90
26164;DHT22;13914;48.178;11.716;2023-05-14T00:45:43;11.30;44.40
26164;DHT22;13914;48.178;11.716;2023-05-14T00:48:09;11.30;44.40
26164;DHT22;13914;48.178;11.716;2023-05-14T00:50:35;11.30;44.60
26164;DHT22;13914;48.178;11.716;2023-05-14T00:53:00;11.20;44.60
26164;DHT22;13914;48.178;11.716;2023-05-14T00:55:27;11.20;44.30
26164;DHT22;13914;48.178;11.716;2023-05-14T00:57:54;11.20;44.50
26164;DHT22;13914;48.178;11.716;2023-05-14T01:00:22;11.20;44.80
26164;DHT22;13914;48.178;11.716;2023-05-14T01:02:47;11.10;44.40
26164;DHT22;13914;48.178;11.716;2023-05-14T01:05:13;11.20;44.60
26164;DHT22;13914;48.178;11.716;2023-05-14T01:10:45;11.10;45.50
26164;DHT22;13914;48.178;11.716;2023-05-14T01:13:17;11.10;45.10
26164;DHT22;13914;48.178;11.716;2023-05-14T01:15:49;11.10;45.50
26164;DHT22;13914;48.178;11.716;2023-05-14T01:18:17;11.00;45.00
26164;DHT22;13914;48.178;11.716;2023-05-14T01:20:44;11.00;45.90
26164;DHT22;13914;48.178;11.716;2023-05-14T01:23:10;11.00;45.50
26164;DHT22;13914;48.178;11.716;2023-05-14T01:25:35;11.00;45.60
26164;DHT22;13914;48.178;11.716;2023-05-14T01:28:05;10.90;45.30
26164;DHT22;13914;48.178;11.716;2023-05-14T01:30:41;10.90;46.00
26164;DHT22;13914;48.178;11.716;2023-05-14T01:33:11;10.90;45.50
26164;DHT22;13914;48.178;11.716;2023-05-14T01:35:38;10.90;45.60
26164;DHT22;13914;48.178;11.716;2023-05-14T01:38:04;10.90;45.80
26164;DHT22;13914;48.178;11.716;2023-05-14T01:40:31;10.90;46.20
26164;DHT22;13914;48.178;11.716;2023-05-14T01:42:58;10.90;46.20
26164;DHT22;13914;48.178;11.716;2023-05-14T01:45:24;10.80;46.90
26164;DHT22;13914;48.178;11.716;2023-05-14T01:47:50;10.90;46.60
26164;DHT22;13914;48.178;11.716;2023-05-14T01:50:17;10.80;46.30
26164;DHT22;13914;48.178;11.716;2023-05-14T01:52:43;10.80;46.50
26164;DHT22;13914;48.178;11.716;2023-05-14T01:55:08;10.80;46.60
26164;DHT22;13914;48.178;11.716;2023-05-14T01:57:34;10.80;46.60
26164;DHT22;13914;48.178;11.716;2023-05-14T02:00:00;10.70;46.40
26164;DHT22;13914;48.178;11.716;2023-05-14T02:02:26;10.80;46.60
26164;DHT22;13914;48.178;11.716;2023-05-14T02:04:51;10.80;47.30
26164;DHT22;13914;48.178;11.716;2023-05-14T02:07:17;10.80;47.00
26164;DHT22;13914;48.178;11.716;2023-05-14T02:09:43;10.80;46.70
26164;DHT22;13914;48.178;11.716;2023-05-14T02:12:08;10.80;47.10
26164;DHT22;13914;48.178;11.716;2023-05-14T02:14:35;10.70;46.90
26164;DHT22;13914;48.178;11.716;2023-05-14T02:17:01;10.70;47.30
26164;DHT22;13914;48.178;11.716;2023-05-14T02:19:28;10.80;47.80
26164;DHT22;13914;48.178;11.716;2023-05-14T02:21:54;10.80;47.40
26164;DHT22;13914;48.178;11.716;2023-05-14T02:24:19;10.70;47.60
26164;DHT22;13914;48.178;11.716;2023-05-14T02:26:45;10.70;47.30
26164;DHT22;13914;48.178;11.716;2023-05-14T02:29:11;10.70;47.60
26164;DHT22;13914;48.178;11.716;2023-05-14T02:31:37;10.70;47.30
26164;DHT22;13914;48.178;11.716;2023-05-14T02:34:03;10.70;47.60
26164;DHT22;13914;48.178;11.716;2023-05-14T02:36:29;10.70;47.90
26164;DHT22;13914;48.178;11.716;2023-05-14T02:38:57;10.70;47.80
26164;DHT22;13914;48.178;11.716;2023-05-14T02:41:23;10.70;47.70
26164;DHT22;13914;48.178;11.716;2023-05-14T02:43:49;10.70;47.90
26164;DHT22;13914;48.178;11.716;2023-05-14T02:46:14;10.70;48.20
26164;DHT22;13914;48.178;11.716;2023-05-14T02:48:40;10.70;48.20
26164;DHT22;13914;48.178;11.716;2023-05-14T02:51:06;10.70;47.80
26164;DHT22;13914;48.178;11.716;2023-05-14T02:53:32;10.60;47.50
26164;DHT22;13914;48.178;11.716;2023-05-14T02:55:57;10.70;47.70
26164;DHT22;13914;48.178;11.716;2023-05-14T02:58:23;10.60;47.60
26164;DHT22;13914;48.178;11.716;2023-05-14T03:00:49;10.60;47.60
26164;DHT22;13914;48.178;11.716;2023-05-14T03:03:15;10.60;48.90
26164;DHT22;13914;48.178;11.716;2023-05-14T03:05:41;10.60;48.10
26164;DHT22;13914;48.178;11.716;2023-05-14T03:08:06;10.60;49.00
26164;DHT22;13914;48.178;11.716;2023-05-14T03:10:32;10.60;47.70
26164;DHT22;13914;48.178;11.716;2023-05-14T03:12:58;10.60;47.70
26164;DHT22;13914;48.178;11.716;2023-05-14T03:15:24;10.50;47.70
26164;DHT22;13914;48.178;11.716;2023-05-14T03:17:50;10.60;48.10
26164;DHT22;13914;48.178;11.716;2023-05-14T03:20:15;10.60;47.70
26164;DHT22;13914;48.178;11.716;2023-05-14T03:22:41;10.50;48.00
26164;DHT22;13914;48.178;11.716;2023-05-14T03:25:07;10.50;47.80
26164;DHT22;13914;48.178;11.716;2023-05-14T03:27:33;10.50;47.60
26164;DHT22;13914;48.178;11.716;2023-05-14T03:29:59;10.50;47.90
26164;DHT22;13914;48.178;11.716;2023-05-14T03:32:25;10.50;48.20
26164;DHT22;13914;48.178;11.716;2023-05-14T03:34:50;10.50;48.30
26164;DHT22;13914;48.178;11.716;2023-05-14T03:37:16;10.50;48.30
26164;DHT22;13914;48.178;11.716;2023-05-14T03:39:42;10.50;48.00
26164;DHT22;13914;48.178;11.716;2023-05-14T03:42:07;10.50;48.10
26164;DHT22;13914;48.178;11.716;2023-05-14T03:44:33;10.50;48.00
26164;DHT22;13914;48.178;11.716;2023-05-14T03:46:59;10.50;48.30
26164;DHT22;13914;48.178;11.716;2023-05-14T03:49:24;10.50;48.00
26164;DHT22;13914;48.178;11.716;2023-05-14T03:51:50;10.50;48.90
26164;DHT22;13914;48.178;11.716;2023-05-14T03:54:16;10.50;48.80
26164;DHT22;13914;48.178;11.716;2023-05-14T03:56:41;10.40;48.20
26164;DHT22;13914;48.178;11.716;2023-05-14T03:59:07;10.40;48.70
26164;DHT22;13914;48.178;11.716;2023-05-14T04:01:33;10.40;48.50
26164;DHT22;13914;48.178;11.716;2023-05-14T04:03:58;10.40;48.70
26164;DHT22;13914;48.178;11.716;2023-05-14T04:06:24;10.50;48.40
26164;DHT22;13914;48.178;11.716;2023-05-14T04:08:50;10.40;48.30
26164;DHT22;13914;48.178;11.716;2023-05-14T04:11:15;10.50;49.10
26164;DHT22;13914;48.178;11.716;2023-05-14T04:13:41;10.50;48.10
26164;DHT22;13914;48.178;11.716;2023-05-14T04:16:07;10.40;48.20
26164;DHT22;13914;48.178;11.716;2023-05-14T04:18:32;10.50;48.70
26164;DHT22;13914;48.178;11.716;2023-05-14T04:21:01;10.40;48.30
26164;DHT22;13914;48.178;11.716;2023-05-14T04:23:27;10.50;48.50
26164;DHT22;13914;48.178;11.716;2023-05-14T04:25:53;10.50;48.20
26164;DHT22;13914;48.178;11.716;2023-05-14T04:28:18;10.50;47.50
26164;DHT22;13914;48.178;11.716;2023-05-14T04:30:44;10.50;47.90
26164;DHT22;13914;48.178;11.716;2023-05-14T04:33:10;10.40;47.90
26164;DHT22;13914;48.178;11.716;2023-05-14T04:35:35;10.40;48.70
26164;DHT22;13914;48.178;11.716;2023-05-14T04:38:01;10.50;48.00
26164;DHT22;13914;48.178;11.716;2023-05-14T04:40:27;10.40;47.30
26164;DHT22;13914;48.178;11.716;2023-05-14T04:42:53;10.40;47.30
26164;DHT22;13914;48.178;11.716;2023-05-14T04:45:19;10.50;48.20
26164;DHT22;13914;48.178;11.716;2023-05-14T04:47:44;10.40;48.00
26164;DHT22;13914;48.178;11.716;2023-05-14T04:50:11;10.50;47.80
26164;DHT22;13914;48.178;11.716;2023-05-14T04:52:37;10.40;47.90
26164;DHT22;13914;48.178;11.716;2023-05-14T04:55:03;10.40;48.50
26164;DHT22;13914;48.178;11.716;2023-05-14T04:57:29;10.50;47.70
26164;DHT22;13914;48.178;11.716;2023-05-14T04:59:55;10.50;47.40
26164;DHT22;13914;48.178;11.716;2023-05-14T05:02:20;10.50;47.60
26164;DHT22;13914;48.178;11.716;2023-05-14T05:04:46;10.50;47.20
26164;DHT22;13914;48.178;11.716;2023-05-14T05:07:12;10.50;47.10
26164;DHT22;13914;48.178;11.716;2023-05-14T05:09:39;10.50;47.30
26164;DHT22;13914;48.178;11.716;2023-05-14T05:12:05;10.50;47.00
26164;DHT22;13914;48.178;11.716;2023-05-14T05:14:31;10.50;47.10
26164;DHT22;13914;48.178;11.716;2023-05-14T05:16:56;10.50;47.00
26164;DHT22;13914;48.178;11.716;2023-05-14T05:19:22;10.50;46.90
26164;DHT22;13914;48.178;11.716;2023-05-14T05:21:48;10.50;46.60
26164;DHT22;13914;48.178;11.716;2023-05-14T05:24:13;10.60;46.80
26164;DHT22;13914;48.178;11.716;2023-05-14T05:26:39;10.60;46.70
26164;DHT22;13914;48.178;11.716;2023-05-14T05:29:05;10.60;46.50
26164;DHT22;13914;48.178;11.716;2023-05-14T05:31:31;10.60;46.40
26164;DHT22;13914;48.178;11.716;2023-05-14T05:34:00;10.60;46.20
26164;DHT22;13914;48.178;11.716;2023-05-14T05:36:25;10.60;46.40
26164;DHT22;13914;48.178;11.716;2023-05-14T05:38:51;10.60;46.30
26164;DHT22;13914;48.178;11.716;2023-05-14T05:41:17;10.60;46.50
26164;DHT22;13914;48.178;11.716;2023-05-14T05:43:43;10.60;46.00
26164;DHT22;13914;48.178;11.716;2023-05-14T05:46:08;10.60;46.10
26164;DHT22;13914;48.178;11.716;2023-05-14T05:48:34;10.60;46.20
26164;DHT22;13914;48.178;11.716;2023-05-14T05:51:00;10.60;46.20
26164;DHT22;13914;48.178;11.716;2023-05-14T05:53:26;10.60;46.40
26164;DHT22;13914;48.178;11.716;2023-05-14T05:55:51;10.60;46.60
26164;DHT22;13914;48.178;11.716;2023-05-14T05:58:17;10.60;46.20
26164;DHT22;13914;48.178;11.716;2023-05-14T06:00:43;10.60;46.20
26164;DHT22;13914;48.178;11.716;2023-05-14T06:03:10;10.60;46.40
26164;DHT22;13914;48.178;11.716;2023-05-14T06:05:35;10.60;46.60
26164;DHT22;13914;48.178;11.716;2023-05-14T06:08:01;10.70;46.10
26164;DHT22;13914;48.178;11.716;2023-05-14T06:10:27;10.60;46.30
26164;DHT22;13914;48.178;11.716;2023-05-14T06:12:53;10.70;46.20
26164;DHT22;13914;48.178;11.716;2023-05-14T06:15:18;10.70;46.30
26164;DHT22;13914;48.178;11.716;2023-05-14T06:17:44;10.70;46.40
26164;DHT22;13914;48.178;11.716;2023-05-14T06:20:10;10.70;47.80
26164;DHT22;13914;48.178;11.716;2023-05-14T06:22:36;10.70;46.60
26164;DHT22;13914;48.178;11.716;2023-05-14T06:25:02;10.70;47.40
26164;DHT22;13914;48.178;11.716;2023-05-14T06:27:28;10.70;46.70
26164;DHT22;13914;48.178;11.716;2023-05-14T06:29:54;10.70;46.70
26164;DHT22;13914;48.178;11.716;2023-05-14T06:32:20;10.70;46.60
26164;DHT22;13914;48.178;11.716;2023-05-14T06:34:46;10.80;47.10
26164;DHT22;13914;48.178;11.716;2023-05-14T06:37:11;10.70;46.70
26164;DHT22;13914;48.178;11.716;2023-05-14T06:39:37;10.70;46.60
26164;DHT22;13914;48.178;11.716;2023-05-14T06:42:03;10.80;46.80
26164;DHT22;13914;48.178;11.716;2023-05-14T06:44:29;10.80;47.10
26164;DHT22;13914;48.178;11.716;2023-05-14T06:46:55;10.80;46.70
26164;DHT22;13914;48.178;11.716;2023-05-14T06:49:21;10.80;46.40
26164;DHT22;13914;48.178;11.716;2023-05-14T06:51:47;10.80;46.50
26164;DHT22;13914;48.178;11.716;2023-05-14T06:54:12;10.80;46.40
26164;DHT22;13914;48.178;11.716;2023-05-14T06:56:38;10.80;47.70
26164;DHT22;13914;48.178;11.716;2023-05-14T06:59:04;10.90;46.90
26164;DHT22;13914;48.178;11.716;2023-05-14T07:01:30;10.90;47.20
26164;DHT22;13914;48.178;11.716;2023-05-14T07:03:55;10.80;46.90
26164;DHT22;13914;48.178;11.716;2023-05-14T07:06:21;10.90;47.70
26164;DHT22;13914;48.178;11.716;2023-05-14T07:08:47;10.90;47.30
26164;DHT22;13914;48.178;11.716;2023-05-14T07:11:13;10.90;47.90
26164;DHT22;13914;48.178;11.716;2023-05-14T07:13:39;10.90;49.10
26164;DHT22;13914;48.178;11.716;2023-05-14T07:16:05;10.90;48.90
26164;DHT22;13914;48.178;11.716;2023-05-14T07:18:33;10.90;48.60
26164;DHT22;13914;48.178;11.716;2023-05-14T07:20:58;10.90;49.10
26164;DHT22;13914;48.178;11.716;2023-05-14T07:23:24;11.00;48.60
26164;DHT22;13914;48.178;11.716;2023-05-14T07:25:50;11.00;49.40
26164;DHT22;13914;48.178;11.716;2023-05-14T07:28:16;11.00;49.50
26164;DHT22;13914;48.178;11.716;2023-05-14T07:30:41;11.00;48.60
26164;DHT22;13914;48.178;11.716;2023-05-14T07:33:07;11.00;48.30
26164;DHT22;13914;48.178;11.716;2023-05-14T07:35:33;11.00;47.70
26164;DHT22;13914;48.178;11.716;2023-05-14T07:37:58;11.00;48.40
26164;DHT22;13914;48.178;11.716;2023-05-14T07:40:24;11.10;48.00
26164;DHT22;13914;48.178;11.716;2023-05-14T07:42:50;11.10;48.90
26164;DHT22;13914;48.178;11.716;2023-05-14T07:45:15;11.20;49.20
26164;DHT22;13914;48.178;11.716;2023-05-14T07:47:41;11.10;48.50
26164;DHT22;13914;48.178;11.716;2023-05-14T07:50:07;11.20;49.60
26164;DHT22;13914;48.178;11.716;2023-05-14T07:52:33;11.20;49.60
26164;DHT22;13914;48.178;11.716;2023-05-14T07:54:59;11.20;48.80
26164;DHT22;13914;48.178;11.716;2023-05-14T07:57:25;11.20;48.80
26164;DHT22;13914;48.178;11.716;2023-05-14T07:59:51;11.20;49.50
26164;DHT22;13914;48.178;11.716;2023-05-14T08:02:17;11.30;50.30
26164;DHT22;13914;48.178;11.716;2023-05-14T08:04:43;11.30;50.20
26164;DHT22;13914;48.178;11.716;2023-05-14T08:07:09;11.20;50.00
26164;DHT22;13914;48.178;11.716;2023-05-14T08:09:35;11.30;51.00
26164;DHT22;13914;48.178;11.716;2023-05-14T08:12:00;11.30;50.30
26164;DHT22;13914;48.178;11.716;2023-05-14T08:14:26;11.30;50.40
26164;DHT22;13914;48.178;11.716;2023-05-14T08:16:52;11.30;49.60
26164;DHT22;13914;48.178;11.716;2023-05-14T08:19:18;11.30;49.80
26164;DHT22;13914;48.178;11.716;2023-05-14T08:21:44;11.30;50.30
26164;DHT22;13914;48.178;11.716;2023-05-14T08:24:09;11.40;49.40
26164;DHT22;13914;48.178;11.716;2023-05-14T08:26:35;11.40;49.90
26164;DHT22;13914;48.178;11.716;2023-05-14T08:29:03;11.40;48.90
26164;DHT22;13914;48.178;11.716;2023-05-14T08:31:29;11.40;49.80
26164;DHT22;13914;48.178;11.716;2023-05-14T08:33:54;11.40;49.00
26164;DHT22;13914;48.178;11.716;2023-05-14T08:36:20;11.40;48.90
26164;DHT22;13914;48.178;11.716;2023-05-14T08:38:46;11.40;49.70
26164;DHT22;13914;48.178;11.716;2023-05-14T08:41:13;11.50;48.80
26164;DHT22;13914;48.178;11.716;2023-05-14T08:46:31;11.60;49.50
26164;DHT22;13914;48.178;11.716;2023-05-14T08:48:59;11.50;49.40
26164;DHT22;13914;48.178;11.716;2023-05-14T08:51:33;11.60;49.90
26164;DHT22;13914;48.178;11.716;2023-05-14T08:54:00;11.50;49.60
26164;DHT22;13914;48.178;11.716;2023-05-14T08:56:26;11.60;49.40
26164;DHT22;13914;48.178;11.716;2023-05-14T08:58:53;11.60;49.10
26164;DHT22;13914;48.178;11.716;2023-05-14T09:01:19;11.60;49.30
26164;DHT22;13914;48.178;11.716;2023-05-14T09:03:45;11.60;48.90
26164;DHT22;13914;48.178;11.716;2023-05-14T09:06:11;11.60;49.20
26164;DHT22;13914;48.178;11.716;2023-05-14T09:08:38;11.70;49.10
26164;DHT22;13914;48.178;11.716;2023-05-14T09:11:04;11.70;49.10
26164;DHT22;13914;48.178;11.716;2023-05-14T09:13:30;11.70;49.30
26164;DHT22;13914;48.178;11.716;2023-05-14T09:15:55;11.80;49.00
26164;DHT22;13914;48.178;11.716;2023-05-14T09:18:21;11.80;49.00
26164;DHT22;13914;48.178;11.716;2023-05-14T09:20:47;11.80;48.90
26164;DHT22;13914;48.178;11.716;2023-05-14T09:23:13;11.80;49.10
26164;DHT22;13914;48.178;11.716;2023-05-14T09:25:39;11.80;48.70
26164;DHT22;13914;48.178;11.716;2023-05-14T09:28:05;11.80;48.30
26164;DHT22;13914;48.178;11.716;2023-05-14T09:30:32;11.80;48.90
26164;DHT22;13914;48.178;11.716;2023-05-14T09:32:59;11.90;48.90
26164;DHT22;13914;48.178;11.716;2023-05-14T09:35:24;11.90;48.40
26164;DHT22;13914;48.178;11.716;2023-05-14T09:37:51;11.90;48.20
26164;DHT22;13914;48.178;11.716;2023-05-14T09:40:18;12.00;48.40
26164;DHT22;13914;48.178;11.716;2023-05-14T09:42:45;12.00;48.00
26164;DHT22;13914;48.178;11.716;2023-05-14T09:45:12;12.00;47.90
26164;DHT22;13914;48.178;11.716;2023-05-14T09:47:38;12.00;48.30
26164;DHT22;13914;48.178;11.716;2023-05-14T09:50:07;12.00;48.10
26164;DHT22;13914;48.178;11.716;2023-05-14T09:52:33;12.00;48.00
26164;DHT22;13914;48.178;11.716;2023-05-14T09:54:59;12.10;47.70
26164;DHT22;13914;48.178;11.716;2023-05-14T09:57:25;12.10;48.30
26164;DHT22;13914;48.178;11.716;2023-05-14T09:59:51;12.10;47.90
26164;DHT22;13914;48.178;11.716;2023-05-14T10:02:22;12.10;47.70
26164;DHT22;13914;48.178;11.716;2023-05-14T10:04:53;12.10;47.60
26164;DHT22;13914;48.178;11.716;2023-05-14T10:07:23;12.10;47.50
26164;DHT22;13914;48.178;11.716;2023-05-14T10:09:53;12.20;47.30
26164;DHT22;13914;48.178;11.716;2023-05-14T10:12:22;12.10;47.30
26164;DHT22;13914;48.178;11.716;2023-05-14T10:14:49;12.20;47.20
26164;DHT22;13914;48.178;11.716;2023-05-14T10:17:18;12.20;47.20
26164;DHT22;13914;48.178;11.716;2023-05-14T10:19:46;12.20;47.00
26164;DHT22;13914;48.178;11.716;2023-05-14T10:22:15;12.20;47.00
26164;DHT22;13914;48.178;11.716;2023-05-14T10:24:44;12.20;46.90
26164;DHT22;13914;48.178;11.716;2023-05-14T10:27:10;12.10;46.80
26164;DHT22;13914;48.178;11.716;2023-05-14T10:29:36;12.20;46.90
26164;DHT22;13914;48.178;11.716;2023-05-14T10:32:03;12.20;46.70
26164;DHT22;13914;48.178;11.716;2023-05-14T10:34:39;12.20;46.50
26164;DHT22;13914;48.178;11.716;2023-05-14T10:42:21;12.20;46.40
26164;DHT22;13914;48.178;11.716;2023-05-14T10:47:15;12.30;45.90
26164;DHT22;13914;48.178;11.716;2023-05-14T10:49:44;12.30;46.10
26164;DHT22;13914;48.178;11.716;2023-05-14T10:52:15;12.30;45.90
26164;DHT22;13914;48.178;11.716;2023-05-14T10:57:18;12.40;45.80
26164;DHT22;13914;48.178;11.716;2023-05-14T10:59:46;12.40;45.60
26164;DHT22;13914;48.178;11.716;2023-05-14T11:02:19;12.40;45.50
26164;DHT22;13914;48.178;11.716;2023-05-14T11:07:22;12.50;45.30
26164;DHT22;13914;48.178;11.716;2023-05-14T11:09:49;12.50;45.40
26164;DHT22;13914;48.178;11.716;2023-05-14T11:12:15;12.60;45.10
26164;DHT22;13914;48.178;11.716;2023-05-14T11:14:41;12.60;45.00
26164;DHT22;13914;48.178;11.716;2023-05-14T11:17:07;12.60;45.30
26164;DHT22;13914;48.178;11.716;2023-05-14T11:19:33;12.70;45.50
26164;DHT22;13914;48.178;11.716;2023-05-14T11:21:58;12.70;44.90
26164;DHT22;13914;48.178;11.716;2023-05-14T11:24:25;12.70;44.90
26164;DHT22;13914;48.178;11.716;2023-05-14T11:26:51;12.70;44.40
26164;DHT22;13914;48.178;11.716;2023-05-14T11:29:20;12.80;44.10
26164;DHT22;13914;48.178;11.716;2023-05-14T11:31:45;12.80;44.40
26164;DHT22;13914;48.178;11.716;2023-05-14T11:34:12;12.80;44.40
26164;DHT22;13914;48.178;11.716;2023-05-14T11:36:37;12.90;43.80
26164;DHT22;13914;48.178;11.716;2023-05-14T11:39:03;12.90;44.20
26164;DHT22;13914;48.178;11.716;2023-05-14T11:41:28;13.00;44.20
26164;DHT22;13914;48.178;11.716;2023-05-14T11:43:55;13.00;44.10
26164;DHT22;13914;48.178;11.716;2023-05-14T11:46:22;13.10;43.30
26164;DHT22;13914;48.178;11.716;2023-05-14T11:48:49;13.10;43.80
26164;DHT22;13914;48.178;11.716;2023-05-14T11:51:15;13.10;43.50
26164;DHT22;13914;48.178;11.716;2023-05-14T11:53:41;13.10;43.70
26164;DHT22;13914;48.178;11.716;2023-05-14T11:56:06;13.10;43.30
26164;DHT22;13914;48.178;11.716;2023-05-14T11:58:32;13.20;43.80
26164;DHT22;13914;48.178;11.716;2023-05-14T12:00:58;13.30;43.70
26164;DHT22;13914;48.178;11.716;2023-05-14T12:03:24;13.30;43.60
26164;DHT22;13914;48.178;11.716;2023-05-14T12:06:01;13.30;44.10
26164;DHT22;13914;48.178;11.716;2023-05-14T12:08:31;13.40;44.40
26164;DHT22;13914;48.178;11.716;2023-05-14T12:10:57;13.50;43.80
26164;DHT22;13914;48.178;11.716;2023-05-14T12:13:30;13.60;43.20
26164;DHT22;13914;48.178;11.716;2023-05-14T12:15:57;13.70;43.40
26164;DHT22;13914;48.178;11.716;2023-05-14T12:18:25;13.80;43.20
26164;DHT22;13914;48.178;11.716;2023-05-14T12:20:52;13.80;43.10
26164;DHT22;13914;48.178;11.716;2023-05-14T12:23:28;13.90;41.50
26164;DHT22;13914;48.178;11.716;2023-05-14T12:25:54;13.90;42.30
26164;DHT22;13914;48.178;11.716;2023-05-14T12:28:25;14.00;42.80
26164;DHT22;13914;48.178;11.716;2023-05-14T12:30:56;14.20;41.80
26164;DHT22;13914;48.178;11.716;2023-05-14T12:33:22;14.20;41.30
26164;DHT22;13914;48.178;11.716;2023-05-14T12:35:51;14.30;40.60
26164;DHT22;13914;48.178;11.716;2023-05-14T12:38:27;14.30;40.50
26164;DHT22;13914;48.178;11.716;2023-05-14T12:40:53;14.40;42.00
26164;DHT22;13914;48.178;11.716;2023-05-14T12:43:18;14.50;40.10
26164;DHT22;13914;48.178;11.716;2023-05-14T12:45:44;14.60;40.80
26164;DHT22;13914;48.178;11.716;2023-05-14T12:48:10;14.70;40.40
26164;DHT22;13914;48.178;11.716;2023-05-14T12:50:37;14.70;39.30
26164;DHT22;13914;48.178;11.716;2023-05-14T12:53:03;14.80;39.90
26164;DHT22;13914;48.178;11.716;2023-05-14T12:55:29;14.80;40.30
26164;DHT22;13914;48.178;11.716;2023-05-14T12:57:55;15.00;40.60
26164;DHT22;13914;48.178;11.716;2023-05-14T13:00:22;15.00;38.30
26164;DHT22;13914;48.178;11.716;2023-05-14T13:02:47;15.10;39.90
26164;DHT22;13914;48.178;11.716;2023-05-14T13:05:13;15.10;38.00
26164;DHT22;13914;48.178;11.716;2023-05-14T13:07:39;15.20;40.30
26164;DHT22;13914;48.178;11.716;2023-05-14T13:10:05;15.30;40.70
26164;DHT22;13914;48.178;11.716;2023-05-14T13:12:31;15.40;39.20
26164;DHT22;13914;48.178;11.716;2023-05-14T13:14:57;15.40;40.20
26164;DHT22;13914;48.178;11.716;2023-05-14T13:17:22;15.50;39.60
26164;DHT22;13914;48.178;11.716;2023-05-14T13:19:48;15.60;40.00
26164;DHT22;13914;48.178;11.716;2023-05-14T13:22:14;15.60;37.50
26164;DHT22;13914;48.178;11.716;2023-05-14T13:24:41;15.70;38.50
26164;DHT22;13914;48.178;11.716;2023-05-14T13:27:07;15.70;40.50
26164;DHT22;13914;48.178;11.716;2023-05-14T13:29:32;15.80;38.80
26164;DHT22;13914;48.178;11.716;2023-05-14T13:31:58;15.80;38.20
26164;DHT22;13914;48.178;11.716;2023-05-14T13:34:24;15.80;37.90
26164;DHT22;13914;48.178;11.716;2023-05-14T13:36:50;15.90;37.80
26164;DHT22;13914;48.178;11.716;2023-05-14T13:39:16;16.00;38.60
26164;DHT22;13914;48.178;11.716;2023-05-14T13:41:42;16.00;37.80
26164;DHT22;13914;48.178;11.716;2023-05-14T13:44:07;16.00;38.90
26164;DHT22;13914;48.178;11.716;2023-05-14T13:46:33;16.10;39.20
26164;DHT22;13914;48.178;11.716;2023-05-14T13:48:59;16.10;37.90
26164;DHT22;13914;48.178;11.716;2023-05-14T13:51:24;16.10;37.80
26164;DHT22;13914;48.178;11.716;2023-05-14T13:53:50;16.20;39.80
26164;DHT22;13914;48.178;11.716;2023-05-14T13:56:16;16.20;39.60
26164;DHT22;13914;48.178;11.716;2023-05-14T13:58:41;16.30;40.10
26164;DHT22;13914;48.178;11.716;2023-05-14T14:01:07;16.40;38.90
26164;DHT22;13914;48.178;11.716;2023-05-14T14:03:33;16.40;39.00
26164;DHT22;13914;48.178;11.716;2023-05-14T14:05:58;16.40;37.80
26164;DHT22;13914;48.178;11.716;2023-05-14T14:08:24;16.40;38.30
26164;DHT22;13914;48.178;11.716;2023-05-14T14:10:50;16.50;37.10
26164;DHT22;13914;48.178;11.716;2023-05-14T14:13:18;16.50;38.40
26164;DHT22;13914;48.178;11.716;2023-05-14T14:15:45;16.60;38.40
26164;DHT22;13914;48.178;11.716;2023-05-14T14:18:11;16.60;38.40
26164;DHT22;13914;48.178;11.716;2023-05-14T14:20:37;16.60;37.20
26164;DHT22;13914;48.178;11.716;2023-05-14T14:23:03;16.60;37.50
26164;DHT22;13914;48.178;11.716;2023-05-14T14:25:29;16.70;38.70
26164;DHT22;13914;48.178;11.716;2023-05-14T14:27:54;16.80;39.10
26164;DHT22;13914;48.178;11.716;2023-05-14T14:30:20;16.90;39.00
26164;DHT22;13914;48.178;11.716;2023-05-14T14:32:46;16.90;38.80
26164;DHT22;13914;48.178;11.716;2023-05-14T14:35:14;16.90;37.00
26164;DHT22;13914;48.178;11.716;2023-05-14T14:37:43;16.90;38.70
26164;DHT22;13914;48.178;11.716;2023-05-14T14:40:15;17.00;37.80
26164;DHT22;13914;48.178;11.716;2023-05-14T14:42:41;17.00;35.40
26164;DHT22;13914;48.178;11.716;2023-05-14T14:45:08;17.00;35.60
26164;DHT22;13914;48.178;11.716;2023-05-14T14:47:34;16.90;36.50
26164;DHT22;13914;48.178;11.716;2023-05-14T14:50:00;16.90;36.70
26164;DHT22;13914;48.178;11.716;2023-05-14T14:52:26;16.90;36.60
26164;DHT22;13914;48.178;11.716;2023-05-14T14:54:52;17.00;36.00
26164;DHT22;13914;48.178;11.716;2023-05-14T14:57:19;17.00;36.10
26164;DHT22;13914;48.178;11.716;2023-05-14T14:59:44;17.00;35.70
26164;DHT22;13914;48.178;11.716;2023-05-14T15:02:11;17.00;36.20
26164;DHT22;13914;48.178;11.716;2023-05-14T15:04:36;17.00;36.30
26164;DHT22;13914;48.178;11.716;2023-05-14T15:07:03;17.00;35.80
26164;DHT22;13914;48.178;11.716;2023-05-14T15:09:29;17.00;36.40
26164;DHT22;13914;48.178;11.716;2023-05-14T15:11:55;17.00;35.40
26164;DHT22;13914;48.178;11.716;2023-05-14T15:14:21;17.00;35.60
26164;DHT22;13914;48.178;11.716;2023-05-14T15:16:46;17.00;34.60
26164;DHT22;13914;48.178;11.716;2023-05-14T15:19:12;17.10;36.20
26164;DHT22;13914;48.178;11.716;2023-05-14T15:21:38;17.00;34.70
26164;DHT22;13914;48.178;11.716;2023-05-14T15:24:04;17.10;36.30
26164;DHT22;13914;48.178;11.716;2023-05-14T15:26:29;17.10;36.30
26164;DHT22;13914;48.178;11.716;2023-05-14T15:28:55;17.10;36.10